Time;durP1;ratioP1;P1;durP2;ratioP2;P2;SDS_P1;SDS_P2;PMS_P1;PMS_P2;Temp;Humidity;BMP_temperature;BMP_pressure;BME280_temperature;BME280_humidity;BME280_pressure;Samples;Min_cycle;Max_cycle;Signal;HPM_P1;HPM_P2
2022/04/06 00:00:43;;;;;;;;;;;;;;;21.17;27.60;97428.38;4993767;28;1911;-75
2022/04/06 00:03:09;;;;;;;;;;;;;;;21.11;27.51;97428.16;4993779;28;1130;-75
2022/04/06 00:05:34;;;;;;;;;;;;;;;21.25;27.50;97433.34;4993954;28;1043;-75
2022/04/06 00:08:00;;;;;;;;;;;;;;;21.01;27.87;97424.44;5024148;28;993;-75
2022/04/06 00:10:26;;;;;;;;;;;;;;;21.10;27.78;97431.44;5035745;28;1125;-76
2022/04/06 00:12:51;;;;;;;;;;;;;;;21.07;27.87;97433.94;5035318;28;911;-75
2022/04/06 00:15:16;;;;;;;;;;;;;;;21.14;27.56;97443.41;5035735;28;957;-75
2022/04/06 00:17:42;;;;;;;;;;;;;;;21.31;27.11;97440.03;5035304;28;952;-75
2022/04/06 00:20:07;;;;;;;;;;;;;;;21.09;27.65;97441.97;5035313;28;1976;-76
2022/04/06 00:22:33;;;;;;;;;;;;;;;21.04;27.44;97439.72;5034825;28;970;-75
2022/04/06 00:24:59;;;;;;;;;;;;;;;21.07;27.58;97438.78;5034943;28;1154;-76
2022/04/06 00:27:24;;;;;;;;;;;;;;;21.15;27.37;97434.50;5035159;28;875;-76
2022/04/06 00:29:50;;;;;;;;;;;;;;;21.14;27.80;97438.56;5000064;28;1163;-75
2022/04/06 00:32:15;;;;;;;;;;;;;;;21.01;27.88;97443.44;5035321;28;930;-75
2022/04/06 00:37:25;;;;;;;;;;;;;;;21.47;27.20;97441.13;5035095;28;1018;-76
2022/04/06 00:39:50;;;;;;;;;;;;;;;21.85;26.65;97441.75;5034838;28;1975;-76
2022/04/06 00:42:16;;;;;;;;;;;;;;;21.58;26.80;97444.38;5035133;28;991;-75
2022/04/06 00:44:41;;;;;;;;;;;;;;;21.49;26.92;97452.75;5034991;28;1010;-75
2022/04/06 00:47:07;;;;;;;;;;;;;;;21.20;27.26;97448.06;5034970;28;968;-75
2022/04/06 00:49:32;;;;;;;;;;;;;;;21.26;27.49;97446.25;4992910;28;1211096;-75
2022/04/06 00:52:01;;;;;;;;;;;;;;;21.09;27.57;97453.28;5035738;28;1116;-75
2022/04/06 00:54:27;;;;;;;;;;;;;;;21.04;27.50;97451.03;4973995;28;931;-76
2022/04/06 00:56:53;;;;;;;;;;;;;;;21.13;27.35;97439.81;4974234;28;988;-76
2022/04/06 00:59:18;;;;;;;;;;;;;;;21.16;27.68;97458.69;4974251;28;1914;-75
2022/04/06 01:01:47;;;;;;;;;;;;;;;21.11;27.71;97450.78;4974117;28;1077;-75
2022/04/06 01:04:13;;;;;;;;;;;;;;;21.13;27.65;97453.16;4935724;29;1098;-75
2022/04/06 01:06:38;;;;;;;;;;;;;;;21.29;27.49;97458.66;4935861;29;1038;-75
2022/04/06 01:09:04;;;;;;;;;;;;;;;21.08;27.76;97457.34;4935909;29;936;-75
2022/04/06 01:11:30;;;;;;;;;;;;;;;21.19;27.51;97457.81;4935757;29;1015;-75
2022/04/06 01:13:55;;;;;;;;;;;;;;;21.18;27.58;97456.19;4935885;29;1043;-75
2022/04/06 01:16:21;;;;;;;;;;;;;;;21.06;27.72;97454.19;4935479;29;1095;-75
2022/04/06 01:18:46;;;;;;;;;;;;;;;21.05;27.41;97453.41;4935830;29;2008;-75
2022/04/06 01:21:12;;;;;;;;;;;;;;;21.14;27.55;97454.72;4935764;29;1132;-76
2022/04/06 01:23:41;;;;;;;;;;;;;;;21.22;27.55;97451.22;4935696;29;1122;-76
2022/04/06 01:26:06;;;;;;;;;;;;;;;21.57;27.10;97459.78;4965447;28;1047;-76
2022/04/06 01:28:32;;;;;;;;;;;;;;;21.95;26.38;97456.00;4954278;28;1434;-76
2022/04/06 01:30:57;;;;;;;;;;;;;;;21.55;26.79;97448.09;4954923;29;1030;-75
2022/04/06 01:33:23;;;;;;;;;;;;;;;21.38;27.06;97452.34;4938211;29;1148;-76
2022/04/06 01:35:49;;;;;;;;;;;;;;;21.41;26.86;97457.09;4972746;28;1081;-75
2022/04/06 01:38:14;;;;;;;;;;;;;;;21.16;27.46;97464.38;4977980;28;1019;-75
2022/04/06 01:40:40;;;;;;;;;;;;;;;21.07;27.75;97467.88;4977896;28;1914;-75
2022/04/06 01:43:05;;;;;;;;;;;;;;;21.00;27.66;97461.66;4977571;28;1133;-75
2022/04/06 01:45:31;;;;;;;;;;;;;;;21.11;27.55;97467.75;4977083;28;968;-75
2022/04/06 01:47:56;;;;;;;;;;;;;;;20.95;27.93;97465.06;4991833;28;1003;-76
2022/04/06 01:53:06;;;;;;;;;;;;;;;21.65;26.91;97471.63;4996682;28;979;-75
2022/04/06 01:55:31;;;;;;;;;;;;;;;21.85;26.52;97464.41;4997028;28;996;-75
2022/04/06 01:57:57;;;;;;;;;;;;;;;21.45;27.02;97464.22;4997070;28;1005;-76
2022/04/06 02:00:22;;;;;;;;;;;;;;;21.36;27.07;97477.50;4996832;28;1910;-75
2022/04/06 02:02:51;;;;;;;;;;;;;;;20.96;27.45;97461.00;4997151;28;1164;-76
2022/04/06 02:05:17;;;;;;;;;;;;;;;21.47;27.15;97473.03;5005744;28;886;-75
2022/04/06 02:07:48;;;;;;;;;;;;;;;21.82;26.40;97473.84;4996466;28;1178;-76
2022/04/06 02:10:13;;;;;;;;;;;;;;;21.65;26.39;97472.41;4996770;28;1110;-75
2022/04/06 02:12:39;;;;;;;;;;;;;;;21.40;27.08;97464.00;4996585;28;1029;-75
2022/04/06 02:15:05;;;;;;;;;;;;;;;21.29;27.14;97465.13;4996639;28;995;-76
2022/04/06 02:17:30;;;;;;;;;;;;;;;21.36;27.03;97466.97;4996298;28;1073;-76
2022/04/06 02:19:56;;;;;;;;;;;;;;;21.74;26.54;97474.53;4996246;28;1914;-75
2022/04/06 02:22:21;;;;;;;;;;;;;;;22.01;26.08;97471.94;4996311;28;989;-75
2022/04/06 02:24:47;;;;;;;;;;;;;;;21.57;26.77;97476.75;4996709;28;1012;-76
2022/04/06 02:27:12;;;;;;;;;;;;;;;21.44;26.84;97470.31;4996064;28;950;-76
2022/04/06 02:29:39;;;;;;;;;;;;;;;21.40;27.08;97472.47;4947707;28;1055;-76
2022/04/06 02:32:05;;;;;;;;;;;;;;;21.25;27.07;97472.97;4996305;28;1097;-76
2022/04/06 02:34:30;;;;;;;;;;;;;;;21.16;27.26;97475.69;4976426;28;964;-76
2022/04/06 02:36:56;;;;;;;;;;;;;;;21.18;27.52;97473.19;4976924;28;982;-76
2022/04/06 02:39:21;;;;;;;;;;;;;;;21.16;27.37;97487.00;4991267;28;1993;-76
2022/04/06 02:41:47;;;;;;;;;;;;;;;21.13;27.49;97482.22;4963625;28;1006;-76
2022/04/06 02:44:12;;;;;;;;;;;;;;;21.16;27.33;97481.34;4996092;28;1028;-76
2022/04/06 02:46:38;;;;;;;;;;;;;;;21.23;27.21;97481.09;4963687;28;991;-76
2022/04/06 02:49:04;;;;;;;;;;;;;;;21.50;26.91;97482.66;4975636;28;1392;-76
2022/04/06 02:51:29;;;;;;;;;;;;;;;21.73;26.65;97479.41;4965102;28;1218;-76
2022/04/06 02:53:55;;;;;;;;;;;;;;;21.73;26.31;97479.41;4957059;29;887;-76
2022/04/06 02:56:20;;;;;;;;;;;;;;;21.56;26.57;97478.00;4957258;29;979;-76
2022/04/06 02:58:45;;;;;;;;;;;;;;;21.39;26.76;97482.22;4957157;29;1902;-76
2022/04/06 03:01:11;;;;;;;;;;;;;;;21.28;27.24;97477.69;4956527;29;1018;-76
2022/04/06 03:03:36;;;;;;;;;;;;;;;21.30;26.96;97492.22;4956750;29;1002;-75
2022/04/06 03:06:02;;;;;;;;;;;;;;;21.23;27.15;97483.91;4956927;29;1011;-76
2022/04/06 03:08:29;;;;;;;;;;;;;;;21.28;27.21;97486.19;4956966;29;940;-76
2022/04/06 03:10:54;;;;;;;;;;;;;;;21.35;26.92;97493.69;4956805;29;1058;-75
2022/04/06 03:13:19;;;;;;;;;;;;;;;21.21;27.30;97488.47;4956772;29;1012;-76
2022/04/06 03:15:45;;;;;;;;;;;;;;;21.66;26.59;97493.84;4956555;29;988;-75
2022/04/06 03:18:11;;;;;;;;;;;;;;;21.93;25.96;97492.50;4956391;29;933;-76
2022/04/06 03:20:36;;;;;;;;;;;;;;;21.63;26.28;97497.56;4956154;29;1911;-76
2022/04/06 03:23:03;;;;;;;;;;;;;;;21.35;26.93;97493.69;4956457;29;1022;-76
2022/04/06 03:25:28;;;;;;;;;;;;;;;21.28;26.99;97496.72;4959394;28;962;-76
2022/04/06 03:27:54;;;;;;;;;;;;;;;21.27;26.79;97504.41;4995421;28;1149;-76
2022/04/06 03:30:19;;;;;;;;;;;;;;;21.14;27.14;97512.13;4995206;28;983;-76
2022/04/06 03:32:45;;;;;;;;;;;;;;;21.18;27.27;97506.34;4995167;28;1040;-76
2022/04/06 03:35:10;;;;;;;;;;;;;;;21.23;27.33;97506.56;4994324;28;948;-76
2022/04/06 03:37:35;;;;;;;;;;;;;;;21.18;27.16;97500.69;5017478;28;1022;-76
2022/04/06 03:40:01;;;;;;;;;;;;;;;21.08;27.18;97513.91;5017081;28;1910;-76
2022/04/06 03:42:27;;;;;;;;;;;;;;;21.16;27.28;97517.31;5017082;28;997;-76
2022/04/06 03:44:52;;;;;;;;;;;;;;;21.63;26.51;97506.06;5016891;28;1128;-75
2022/04/06 03:47:17;;;;;;;;;;;;;;;21.90;26.20;97516.06;5016462;28;962;-76
2022/04/06 03:49:43;;;;;;;;;;;;;;;21.62;26.48;97521.47;5016664;28;1227;-76
2022/04/06 03:52:08;;;;;;;;;;;;;;;21.40;26.79;97517.75;5016921;28;947;-76
2022/04/06 03:54:34;;;;;;;;;;;;;;;21.27;26.97;97526.25;5016812;28;974;-75
2022/04/06 03:57:00;;;;;;;;;;;;;;;21.26;26.90;97519.81;4974297;28;995;-76
2022/04/06 03:59:26;;;;;;;;;;;;;;;21.16;27.45;97528.66;4975056;28;2017;-75
2022/04/06 04:01:51;;;;;;;;;;;;;;;21.07;27.13;97518.00;4975126;28;996;-77
2022/04/06 04:04:16;;;;;;;;;;;;;;;21.11;27.34;97517.91;4975039;28;1014;-76
2022/04/06 04:06:42;;;;;;;;;;;;;;;21.30;26.96;97520.53;4974964;28;1091;-76
2022/04/06 04:09:07;;;;;;;;;;;;;;;21.16;27.18;97531.47;4975106;28;1168;-76
2022/04/06 04:11:33;;;;;;;;;;;;;;;21.04;27.55;97533.06;4974916;28;1048;-76
2022/04/06 04:13:59;;;;;;;;;;;;;;;21.06;27.17;97534.19;4964534;28;1457;-76
2022/04/06 04:16:25;;;;;;;;;;;;;;;21.08;27.20;97536.56;4943727;29;1290;-76
2022/04/06 04:18:50;;;;;;;;;;;;;;;21.61;26.55;97533.25;4946514;28;2014;-76
2022/04/06 04:21:34;;;;;;;;;;;;;;;21.98;26.05;97542.91;4944900;28;1231;-76
2022/04/06 04:24:03;;;;;;;;;;;;;;;21.58;26.37;97534.94;4945314;28;1160;-76
2022/04/06 04:26:29;;;;;;;;;;;;;;;21.37;26.78;97547.78;4935970;29;1314;-76
2022/04/06 04:28:55;;;;;;;;;;;;;;;21.23;26.74;97543.34;4975549;28;1358;-76
2022/04/06 04:31:20;;;;;;;;;;;;;;;21.26;26.62;97547.31;4983915;28;1238;-76
2022/04/06 04:33:46;;;;;;;;;;;;;;;21.56;26.44;97543.13;4984398;28;1254;-76
2022/04/06 04:36:12;;;;;;;;;;;;;;;21.96;26.19;97551.03;4982891;28;1375;-76
2022/04/06 04:38:37;;;;;;;;;;;;;;;21.80;25.76;97555.63;4984223;28;1336;-76
2022/04/06 04:41:03;;;;;;;;;;;;;;;21.29;26.75;97563.38;4984088;28;1918;-76
2022/04/06 04:43:28;;;;;;;;;;;;;;;21.42;26.40;97560.56;4982927;28;1254;-76
2022/04/06 04:45:54;;;;;;;;;;;;;;;21.13;26.96;97566.31;4984574;28;1241;-75
2022/04/06 04:48:19;;;;;;;;;;;;;;;21.31;27.19;97567.38;4952700;28;1319;-75
2022/04/06 04:50:45;;;;;;;;;;;;;;;21.82;26.36;97572.97;4966718;28;1151;-75
2022/04/06 04:53:10;;;;;;;;;;;;;;;21.71;26.07;97572.53;4974417;28;1020;-75
2022/04/06 04:55:36;;;;;;;;;;;;;;;21.52;26.30;97582.88;4965746;28;1254;-76
2022/04/06 04:58:01;;;;;;;;;;;;;;;21.31;26.71;97578.69;4963405;28;1559;-77
2022/04/06 05:00:26;;;;;;;;;;;;;;;21.22;26.81;97587.03;4965119;28;1906;-76
2022/04/06 05:02:52;;;;;;;;;;;;;;;21.14;26.86;97588.50;4963787;28;1313;-75
2022/04/06 05:05:17;;;;;;;;;;;;;;;21.13;26.90;97581.25;4964015;28;1487;-76
2022/04/06 05:07:43;;;;;;;;;;;;;;;21.25;26.86;97591.78;4930271;28;1204;-76
2022/04/06 05:10:09;;;;;;;;;;;;;;;21.23;27.23;97594.28;4954133;29;1032;-76
2022/04/06 05:12:35;;;;;;;;;;;;;;;21.10;27.30;97596.31;4954700;29;1119;-76
2022/04/06 05:15:00;;;;;;;;;;;;;;;21.03;27.36;97599.34;4916592;29;1009;-76
2022/04/06 05:17:26;;;;;;;;;;;;;;;21.11;26.95;97599.94;4916663;29;1455;-76
2022/04/06 05:19:52;;;;;;;;;;;;;;;21.28;26.66;97596.53;4957828;28;1971;-76
2022/04/06 05:22:17;;;;;;;;;;;;;;;21.68;26.45;97601.75;4973650;28;1238;-75
2022/04/06 05:24:43;;;;;;;;;;;;;;;21.77;26.19;97603.91;4973766;28;1313;-76
2022/04/06 05:27:08;;;;;;;;;;;;;;;21.39;26.79;97606.75;4973781;28;1238;-76
2022/04/06 05:29:34;;;;;;;;;;;;;;;21.32;26.82;97619.88;4973698;28;1234;-76
2022/04/06 05:31:59;;;;;;;;;;;;;;;21.30;26.80;97619.56;4973821;28;1250;-76
2022/04/06 05:34:25;;;;;;;;;;;;;;;21.39;26.63;97618.06;4973516;28;1264;-76
2022/04/06 05:36:50;;;;;;;;;;;;;;;21.25;27.15;97625.75;4973687;28;1222;-76
2022/04/06 05:39:16;;;;;;;;;;;;;;;21.87;25.91;97625.41;4973438;28;1898;-76
2022/04/06 05:41:41;;;;;;;;;;;;;;;21.81;25.95;97616.69;4973316;28;1234;-76
2022/04/06 05:44:07;;;;;;;;;;;;;;;21.52;26.47;97621.72;4973551;28;1112;-76
2022/04/06 05:46:32;;;;;;;;;;;;;;;21.29;26.74;97620.75;5003606;28;1397;-76
2022/04/06 05:48:58;;;;;;;;;;;;;;;21.36;26.81;97619.00;5015279;28;1173;-76
2022/04/06 05:51:23;;;;;;;;;;;;;;;21.27;27.01;97616.81;5015193;28;1014;-75
2022/04/06 05:53:49;;;;;;;;;;;;;;;21.23;26.79;97621.78;5015565;28;1002;-75
2022/04/06 05:56:14;;;;;;;;;;;;;;;21.25;26.83;97634.25;5015467;28;1032;-76
2022/04/06 05:58:41;;;;;;;;;;;;;;;21.24;27.00;97635.50;4954404;29;1030;-76
2022/04/06 06:01:06;;;;;;;;;;;;;;;21.71;26.17;97637.66;4957617;28;1991;-75
2022/04/06 06:03:31;;;;;;;;;;;;;;;21.89;25.93;97634.22;4944536;29;1329;-76
2022/04/06 06:05:57;;;;;;;;;;;;;;;21.52;26.46;97635.84;4944814;29;1302;-77
2022/04/06 06:08:22;;;;;;;;;;;;;;;21.55;26.39;97638.59;4943146;29;1275;-75
2022/04/06 06:10:48;;;;;;;;;;;;;;;21.40;26.69;97636.63;4914201;29;1276;-76
2022/04/06 06:13:13;;;;;;;;;;;;;;;21.40;26.46;97637.44;4945891;29;1207;-75
2022/04/06 06:15:39;;;;;;;;;;;;;;;21.27;26.59;97645.88;4906014;29;1444;-76
2022/04/06 06:18:04;;;;;;;;;;;;;;;21.13;26.81;97648.34;4953987;29;1207;-76
2022/04/06 06:20:30;;;;;;;;;;;;;;;21.26;26.84;97641.47;4919999;29;1915;-74
2022/04/06 06:22:55;;;;;;;;;;;;;;;21.26;26.92;97641.47;4952879;29;1267;-73
2022/04/06 06:25:21;;;;;;;;;;;;;;;21.16;27.05;97653.13;4957856;29;1191;-74
2022/04/06 06:27:46;;;;;;;;;;;;;;;21.28;26.52;97647.47;4957387;29;1027;-74
2022/04/06 06:30:12;;;;;;;;;;;;;;;21.83;25.76;97651.00;4999627;28;1135;-74
2022/04/06 06:32:38;;;;;;;;;;;;;;;22.04;25.74;97651.53;5015955;28;1166;-74
2022/04/06 06:35:03;;;;;;;;;;;;;;;21.65;25.95;97653.63;4990550;28;940;-74
2022/04/06 06:37:29;;;;;;;;;;;;;;;21.33;26.29;97655.44;4963414;28;1073;-74
2022/04/06 06:39:54;;;;;;;;;;;;;;;21.26;26.73;97655.63;4995997;28;1991;-74
2022/04/06 06:42:20;;;;;;;;;;;;;;;21.19;26.51;97661.50;4995893;28;1167;-74
2022/04/06 06:44:45;;;;;;;;;;;;;;;21.19;26.83;97664.34;4995965;28;983;-74
2022/04/06 06:47:11;;;;;;;;;;;;;;;21.33;26.66;97672.41;4963603;28;1048;-74
2022/04/06 06:49:37;;;;;;;;;;;;;;;21.71;26.11;97665.97;4990572;28;1185;-74
2022/04/06 06:52:03;;;;;;;;;;;;;;;22.08;25.15;97661.50;4982921;28;1223;-73
2022/04/06 06:54:28;;;;;;;;;;;;;;;21.59;25.82;97661.88;4980913;28;1261;-74
2022/04/06 06:56:54;;;;;;;;;;;;;;;21.50;26.22;97675.13;4959811;28;1218;-74
2022/04/06 06:59:19;;;;;;;;;;;;;;;21.41;26.35;97675.03;4975982;28;2266;-75
2022/04/06 07:01:45;;;;;;;;;;;;;;;21.31;26.51;97677.75;4980962;28;1548;-75
2022/04/06 07:04:10;;;;;;;;;;;;;;;21.27;26.58;97679.84;4975918;28;1269;-75
2022/04/06 07:06:36;;;;;;;;;;;;;;;21.72;25.91;97678.88;5015828;28;1249;-74
2022/04/06 07:09:01;;;;;;;;;;;;;;;21.93;25.23;97685.09;4984045;28;1289;-74
2022/04/06 07:11:27;;;;;;;;;;;;;;;21.64;26.04;97674.69;4985922;28;1182;-75
2022/04/06 07:13:52;;;;;;;;;;;;;;;21.45;26.21;97687.00;4969004;28;1697;-75
2022/04/06 07:16:19;;;;;;;;;;;;;;;21.36;26.45;97692.56;4984225;28;1292;-75
2022/04/06 07:18:44;;;;;;;;;;;;;;;21.34;26.47;97701.50;4984670;28;1092;-75
2022/04/06 07:21:10;;;;;;;;;;;;;;;21.35;26.10;97702.28;4985426;28;1911;-75
2022/04/06 07:23:36;;;;;;;;;;;;;;;21.23;26.34;97690.47;4946762;29;1285;-74
2022/04/06 07:26:02;;;;;;;;;;;;;;;21.52;26.03;97698.13;4945394;29;1295;-74
2022/04/06 07:28:27;;;;;;;;;;;;;;;21.92;25.53;97700.53;4948044;29;1347;-74
2022/04/06 07:30:53;;;;;;;;;;;;;;;21.70;25.70;97692.69;4940478;28;992;-74
2022/04/06 07:33:18;;;;;;;;;;;;;;;21.44;26.08;97693.94;4955502;29;1038;-74
2022/04/06 07:35:46;;;;;;;;;;;;;;;21.29;26.34;97697.16;4953079;29;1654;-74
2022/04/06 07:38:12;;;;;;;;;;;;;;;21.18;26.51;97705.19;4953199;29;1588;-73
2022/04/06 07:40:38;;;;;;;;;;;;;;;21.27;26.61;97710.97;4985551;28;1960;-74
2022/04/06 07:43:03;;;;;;;;;;;;;;;21.32;26.63;97701.16;4994842;28;2237;-74
2022/04/06 07:45:29;;;;;;;;;;;;;;;21.20;26.52;97711.19;4994967;28;1045;-74
2022/04/06 07:47:54;;;;;;;;;;;;;;;21.70;25.80;97701.19;4995029;28;1129;-74
2022/04/06 07:50:20;;;;;;;;;;;;;;;21.95;25.55;97705.25;4961922;28;1186;-75
2022/04/06 07:52:45;;;;;;;;;;;;;;;21.66;25.93;97706.19;4956270;29;1019;-75
2022/04/06 07:55:11;;;;;;;;;;;;;;;21.54;25.77;97721.13;4917540;29;1062;-75
2022/04/06 07:57:36;;;;;;;;;;;;;;;21.36;26.50;97715.22;4907847;29;1272;-75
2022/04/06 08:00:09;;;;;;;;;;;;;;;21.35;26.30;97719.28;4880190;29;1937;-74
2022/04/06 08:02:34;;;;;;;;;;;;;;;21.29;26.32;97716.97;4923857;29;1212;-74
2022/04/06 08:05:00;;;;;;;;;;;;;;;21.03;26.83;97712.50;4926375;29;1297;-74
2022/04/06 08:07:25;;;;;;;;;;;;;;;21.16;26.80;97713.34;4927204;29;1280;-75
2022/04/06 08:09:51;;;;;;;;;;;;;;;21.17;26.49;97712.09;4909515;29;1236;-75
2022/04/06 08:12:16;;;;;;;;;;;;;;;21.50;26.46;97711.94;4925786;29;1476;-75
2022/04/06 08:14:42;;;;;;;;;;;;;;;22.02;25.63;97710.69;4926152;29;1348;-75
2022/04/06 08:17:07;;;;;;;;;;;;;;;21.47;26.35;97710.03;4927327;29;1144;-75
2022/04/06 08:19:33;;;;;;;;;;;;;;;21.28;26.63;97721.03;4925797;29;2290;-75
2022/04/06 08:21:58;;;;;;;;;;;;;;;21.28;26.63;97718.22;4926517;29;1183;-75
2022/04/06 08:24:24;;;;;;;;;;;;;;;21.34;26.58;97712.81;4926737;29;1270;-75
2022/04/06 08:26:49;;;;;;;;;;;;;;;21.17;26.62;97716.94;4936837;29;1253;-76
2022/04/06 08:29:15;;;;;;;;;;;;;;;21.16;26.78;97713.34;4918832;29;1219;-75
2022/04/06 08:31:40;;;;;;;;;;;;;;;21.14;26.58;97715.81;4935906;29;1270;-74
2022/04/06 08:34:06;;;;;;;;;;;;;;;21.13;26.68;97713.44;4947108;28;1262;-75
2022/04/06 08:36:34;;;;;;;;;;;;;;;21.35;26.32;97710.78;4968858;28;1376;-76
2022/04/06 08:39:01;;;;;;;;;;;;;;;21.43;26.62;97704.47;4974215;28;1930;-75
2022/04/06 08:41:28;;;;;;;;;;;;;;;21.59;26.01;97709.22;4974833;28;1102;-75
2022/04/06 08:43:54;;;;;;;;;;;;;;;21.78;25.83;97708.22;4974003;28;1068;-75
2022/04/06 08:46:20;;;;;;;;;;;;;;;21.47;26.13;97716.47;4974155;28;935;-75
2022/04/06 08:48:47;;;;;;;;;;;;;;;21.57;26.24;97703.25;4974630;28;1062;-75
2022/04/06 08:51:12;;;;;;;;;;;;;;;21.41;26.29;97711.84;4974271;28;1372;-74
2022/04/06 08:53:40;;;;;;;;;;;;;;;21.24;26.73;97706.22;4954510;29;1295;-75
2022/04/06 08:56:06;;;;;;;;;;;;;;;21.26;26.66;97712.22;4935723;29;891;-75
2022/04/06 08:58:32;;;;;;;;;;;;;;;21.39;26.18;97709.44;4937124;29;1053;-74
2022/04/06 09:00:57;;;;;;;;;;;;;;;21.45;26.21;97702.00;4982587;28;1918;-75
2022/04/06 09:03:23;;;;;;;;;;;;;;;21.89;25.70;97696.53;4993312;28;1225;-75
2022/04/06 09:06:01;;;;;;;;;;;;;;;21.67;25.65;97693.63;4993120;28;1346;-74
2022/04/06 09:08:36;;;;;;;;;;;;;;;21.54;25.90;97687.16;4976867;28;1270;-76
2022/04/06 09:11:08;;;;;;;;;;;;;;;21.35;26.49;97699.47;4993201;28;1207;-75
2022/04/06 09:13:33;;;;;;;;;;;;;;;21.25;26.67;97698.53;4993365;28;958;-74
2022/04/06 09:15:59;;;;;;;;;;;;;;;21.30;26.52;97684.66;4993500;28;1611;-75
2022/04/06 09:18:44;;;;;;;;;;;;;;;21.13;26.80;97685.94;4993359;28;1521;-75
2022/04/06 09:21:10;;;;;;;;;;;;;;;21.30;26.67;97686.69;4993410;28;1914;-75
2022/04/06 09:23:35;;;;;;;;;;;;;;;21.23;26.68;97693.31;4994687;28;992;-75
2022/04/06 09:26:05;;;;;;;;;;;;;;;21.33;26.66;97695.03;5015436;28;886;-75
2022/04/06 09:28:30;;;;;;;;;;;;;;;21.67;26.03;97684.34;5015227;28;957;-74
2022/04/06 09:30:55;;;;;;;;;;;;;;;21.69;25.71;97682.63;5015637;28;1005;-74
2022/04/06 09:33:21;;;;;;;;;;;;;;;21.58;25.97;97682.16;5015645;28;929;-75
2022/04/06 09:35:47;;;;;;;;;;;;;;;21.36;26.16;97686.91;5015727;28;895;-75
2022/04/06 09:38:13;;;;;;;;;;;;;;;21.42;26.34;97685.09;5015710;28;1123;-75
2022/04/06 09:40:39;;;;;;;;;;;;;;;21.21;26.70;97680.88;5015433;28;1910;-74
2022/04/06 09:43:04;;;;;;;;;;;;;;;21.27;26.39;97677.00;5015298;28;1628;-75
2022/04/06 09:48:14;;;;;;;;;;;;;;;21.27;26.47;97671.34;4954858;28;1393;-74
2022/04/06 09:50:42;;;;;;;;;;;;;;;21.16;26.56;97672.94;4962739;28;1745;-75
2022/04/06 09:53:07;;;;;;;;;;;;;;;21.44;26.40;97666.41;4924273;29;1508;-75
2022/04/06 09:55:33;;;;;;;;;;;;;;;21.77;25.89;97672.66;4925168;29;1459;-74
2022/04/06 09:57:59;;;;;;;;;;;;;;;21.49;26.33;97657.34;4919996;29;1001;-75
2022/04/06 10:00:25;;;;;;;;;;;;;;;21.33;26.29;97655.44;4922279;29;1903;-76
2022/04/06 10:03:03;;;;;;;;;;;;;;;21.29;26.53;97662.41;4924957;29;1564;-75
2022/04/06 10:05:30;;;;;;;;;;;;;;;21.43;26.28;97661.22;4921777;29;1562;-75
2022/04/06 10:07:55;;;;;;;;;;;;;;;21.28;26.55;97647.47;4920105;29;1513;-76
2022/04/06 10:10:23;;;;;;;;;;;;;;;21.19;26.37;97655.84;4927281;29;1544;-76
2022/04/06 10:12:48;;;;;;;;;;;;;;;21.14;26.61;97659.25;4927418;29;1530;-76
2022/04/06 10:15:14;;;;;;;;;;;;;;;21.12;26.58;97663.75;4929677;29;2108;-75
2022/04/06 10:17:39;;;;;;;;;;;;;;;21.13;26.91;97651.97;4965867;28;1590;-75
2022/04/06 10:20:20;;;;;;;;;;;;;;;21.21;26.78;97652.56;4970361;28;1983;-76
2022/04/06 10:22:54;;;;;;;;;;;;;;;21.28;26.31;97636.16;4977374;28;975;-76
2022/04/06 10:25:26;;;;;;;;;;;;;;;21.17;26.82;97641.34;5020115;28;962;-75
2022/04/06 10:27:53;;;;;;;;;;;;;;;21.30;26.61;97638.56;5014055;28;1539;-76
2022/04/06 10:30:22;;;;;;;;;;;;;;;21.25;26.30;97631.41;5026825;28;1781;-76
2022/04/06 10:32:51;;;;;;;;;;;;;;;21.36;26.49;97635.97;5025591;28;1637;-75
2022/04/06 10:35:34;;;;;;;;;;;;;;;21.71;25.97;97634.84;5017858;28;1489;-76
2022/04/06 10:38:03;;;;;;;;;;;;;;;21.82;25.22;97638.09;5028433;28;1432;-75
2022/04/06 10:40:32;;;;;;;;;;;;;;;21.52;26.00;97645.16;5017243;28;1907;-76
2022/04/06 10:42:58;;;;;;;;;;;;;;;21.37;26.19;97643.22;5017819;28;1451;-75
2022/04/06 10:45:27;;;;;;;;;;;;;;;21.19;26.42;97647.38;5023487;28;1641;-75
2022/04/06 10:48:11;;;;;;;;;;;;;;;21.12;26.66;97650.41;5030503;28;1440;-75
2022/04/06 10:50:37;;;;;;;;;;;;;;;21.11;26.76;97654.47;5038038;28;1366;-75
2022/04/06 10:53:18;;;;;;;;;;;;;;;21.13;26.53;97649.16;5034833;28;1463;-76
2022/04/06 10:56:01;;;;;;;;;;;;;;;21.15;26.84;97655.16;5028480;28;1529;-76
2022/04/06 10:58:26;;;;;;;;;;;;;;;21.07;26.84;97648.13;5034832;28;1327;-75
2022/04/06 11:01:10;;;;;;;;;;;;;;;21.38;26.33;97650.47;5026565;28;1977;-76
2022/04/06 11:03:37;;;;;;;;;;;;;;;21.63;26.09;97646.84;5025400;28;1256;-76
2022/04/06 11:06:02;;;;;;;;;;;;;;;21.75;25.57;97641.16;5010360;28;1424;-76
2022/04/06 11:11:38;;;;;;;;;;;;;;;21.20;26.41;97645.31;5025593;28;1453;-76
2022/04/06 11:14:03;;;;;;;;;;;;;;;21.14;26.50;97636.63;5023116;28;2018;-76
2022/04/06 11:16:38;;;;;;;;;;;;;;;21.26;26.59;97638.66;4984032;28;1597;-75
2022/04/06 11:19:04;;;;;;;;;;;;;;;20.99;27.10;97646.78;4981167;28;1523;-76
2022/04/06 11:21:29;;;;;;;;;;;;;;;21.06;26.91;97640.88;4976095;28;1030;-77
2022/04/06 11:23:54;;;;;;;;;;;;;;;21.52;25.93;97639.47;4976201;28;1055;-76
2022/04/06 11:26:20;;;;;;;;;;;;;;;22.01;25.35;97643.94;4975816;28;965;-76
2022/04/06 11:28:54;;;;;;;;;;;;;;;21.59;25.84;97644.13;4959719;28;1006;-75
2022/04/06 11:31:19;;;;;;;;;;;;;;;21.43;26.38;97641.41;4959364;28;1076;-76
2022/04/06 11:33:45;;;;;;;;;;;;;;;21.26;26.38;97649.19;4976074;28;1033;-75
2022/04/06 11:36:11;;;;;;;;;;;;;;;21.23;26.43;97639.53;4975821;28;1147;-75
2022/04/06 11:38:37;;;;;;;;;;;;;;;21.24;26.81;97646.00;4975870;28;965;-76
2022/04/06 11:41:02;;;;;;;;;;;;;;;21.18;26.72;97648.59;4975519;28;1981;-75
2022/04/06 11:43:28;;;;;;;;;;;;;;;21.10;26.78;97646.44;4975647;28;894;-75
2022/04/06 11:45:56;;;;;;;;;;;;;;;21.17;26.66;97632.88;4975595;28;988;-75
2022/04/06 11:48:22;;;;;;;;;;;;;;;21.01;26.76;97647.09;4972808;28;993;-76
2022/04/06 11:50:49;;;;;;;;;;;;;;;21.62;26.08;97645.25;4975445;28;1280;-76
2022/04/06 11:53:18;;;;;;;;;;;;;;;21.81;25.78;97638.53;4975503;28;995;-76
2022/04/06 11:55:48;;;;;;;;;;;;;;;21.58;25.77;97637.66;4975465;28;1001;-76
2022/04/06 11:58:38;;;;;;;;;;;;;;;21.28;26.52;97635.34;4975006;28;1030;-76
2022/04/06 12:01:06;;;;;;;;;;;;;;;21.08;26.80;97649.69;4975348;28;1982;-75
2022/04/06 12:03:32;;;;;;;;;;;;;;;21.12;26.65;97647.56;4955588;29;1021;-75
2022/04/06 12:05:58;;;;;;;;;;;;;;;21.14;26.66;97647.94;4955540;29;1090;-76
2022/04/06 12:08:23;;;;;;;;;;;;;;;21.42;26.34;97639.81;4955432;29;1010;-76
2022/04/06 12:10:53;;;;;;;;;;;;;;;21.73;25.89;97638.00;4961576;28;1559;-76
2022/04/06 12:13:19;;;;;;;;;;;;;;;21.90;25.33;97635.03;4973794;28;1511;-75
2022/04/06 12:15:45;;;;;;;;;;;;;;;21.69;25.92;97642.97;4954466;29;1369;-76
2022/04/06 12:18:10;;;;;;;;;;;;;;;21.43;26.10;97630.09;4946130;28;1488;-75
2022/04/06 12:20:36;;;;;;;;;;;;;;;21.38;26.24;97631.44;4925518;29;1915;-76
2022/04/06 12:23:02;;;;;;;;;;;;;;;21.44;26.14;97620.34;4924964;29;1590;-75
2022/04/06 12:25:28;;;;;;;;;;;;;;;21.25;26.21;97624.97;4926492;29;1473;-75
2022/04/06 12:28:08;;;;;;;;;;;;;;;21.12;26.80;97621.31;4894255;29;1622;-75
2022/04/06 12:30:33;;;;;;;;;;;;;;;21.24;26.31;97624.19;4888429;29;1521;-76
2022/04/06 12:32:59;;;;;;;;;;;;;;;21.66;26.05;97615.59;4888234;29;1599;-76
2022/04/06 12:35:24;;;;;;;;;;;;;;;21.85;25.61;97625.06;4895427;29;1413;-76
2022/04/06 12:37:50;;;;;;;;;;;;;;;21.57;26.05;97618.31;4898386;29;988;-76
2022/04/06 12:40:23;;;;;;;;;;;;;;;21.40;26.11;97619.66;4897538;29;1914;-76
2022/04/06 12:42:49;;;;;;;;;;;;;;;21.33;26.37;97607.31;4897924;29;1477;-77
2022/04/06 12:45:14;;;;;;;;;;;;;;;21.18;26.42;97617.47;4897549;29;1536;-75
2022/04/06 12:47:40;;;;;;;;;;;;;;;21.24;26.51;97620.53;4939803;29;1560;-76
2022/04/06 12:50:20;;;;;;;;;;;;;;;21.43;26.03;97613.88;4944597;29;1600;-76
2022/04/06 12:53:01;;;;;;;;;;;;;;;21.76;25.61;97617.28;4964049;28;1513;-76
2022/04/06 12:55:26;;;;;;;;;;;;;;;21.57;25.88;97604.94;4946870;28;1544;-76
2022/04/06 12:57:52;;;;;;;;;;;;;;;21.38;26.31;97605.97;4967488;28;1476;-76
2022/04/06 13:00:18;;;;;;;;;;;;;;;21.16;26.54;97605.81;5024564;28;1959;-75
2022/04/06 13:02:46;;;;;;;;;;;;;;;21.16;26.64;97600.16;5025891;28;1516;-76
2022/04/06 13:05:13;;;;;;;;;;;;;;;21.04;26.70;97598.13;5026194;28;1533;-76